Time;durP1;ratioP1;P1;durP2;ratioP2;P2;SDS_P1;SDS_P2;PMS_P1;PMS_P2;Temp;Humidity;BMP_temperature;BMP_pressure;BME280_temperature;BME280_humidity;BME280_pressure;Samples;Min_cycle;Max_cycle;Signal;HPM_P1;HPM_P2
2021/11/30 00:01:34;;;;;;;0.80;0.80;;;;;;;;;;4992378;28;20768;-72
2021/11/30 00:04:03;;;;;;;0.73;0.73;;;;;;;;;;4986557;28;20206;-72
2021/11/30 00:06:33;;;;;;;1.43;0.50;;;;;;;;;;4989127;28;20204;-74
2021/11/30 00:09:10;;;;;;;0.40;0.40;;;;;;;;;;4989864;28;20209;-74
2021/11/30 00:11:37;;;;;;;8.50;0.63;;;;;;;;;;4989986;28;20205;-73
2021/11/30 00:14:05;;;;;;;2.80;0.83;;;;;;;;;;4990380;28;20197;-74
2021/11/30 00:16:33;;;;;;;0.57;0.47;;;;;;;;;;4992141;28;20247;-75
2021/11/30 00:19:00;;;;;;;1.70;0.60;;;;;;;;;;4987536;28;20598;-74
2021/11/30 00:21:29;;;;;;;1.30;0.33;;;;;;;;;;4993052;28;20241;-73
2021/11/30 00:23:56;;;;;;;3.60;1.30;;;;;;;;;;4990652;28;20209;-74
2021/11/30 00:26:24;;;;;;;0.87;0.77;;;;;;;;;;4986204;28;20206;-75
2021/11/30 00:28:51;;;;;;;1.10;1.00;;;;;;;;;;4988642;28;20209;-73
2021/11/30 00:31:18;;;;;;;0.23;0.20;;;;;;;;;;4989606;28;20209;-75
2021/11/30 00:33:46;;;;;;;0.57;0.43;;;;;;;;;;4988681;28;20237;-74
2021/11/30 00:36:13;;;;;;;2.87;1.27;;;;;;;;;;4992376;28;20566;-74
2021/11/30 00:38:42;;;;;;;6.60;1.00;;;;;;;;;;4991467;28;20208;-73
2021/11/30 00:41:10;;;;;;;5.50;1.07;;;;;;;;;;4989909;28;20212;-74
2021/11/30 00:43:38;;;;;;;0.60;0.60;;;;;;;;;;4996144;28;20582;-74
2021/11/30 00:46:12;;;;;;;1.63;1.03;;;;;;;;;;4989250;28;20205;-74
2021/11/30 00:48:39;;;;;;;1.67;1.00;;;;;;;;;;4987022;28;20205;-74
2021/11/30 00:51:08;;;;;;;1.63;1.53;;;;;;;;;;4988242;28;20236;-75
2021/11/30 00:53:36;;;;;;;2.10;1.90;;;;;;;;;;4990920;28;20329;-74
2021/11/30 00:56:06;;;;;;;1.60;1.30;;;;;;;;;;4988195;28;20202;-75
2021/11/30 00:58:34;;;;;;;1.50;1.27;;;;;;;;;;4992353;28;20200;-76
2021/11/30 01:01:01;;;;;;;2.33;1.57;;;;;;;;;;4998385;28;20201;-75
2021/11/30 01:03:29;;;;;;;0.40;0.33;;;;;;;;;;4996362;28;20212;-75
2021/11/30 01:05:56;;;;;;;1.37;1.03;;;;;;;;;;4997634;28;20213;-75
2021/11/30 01:08:23;;;;;;;1.00;0.90;;;;;;;;;;4988261;28;20212;-74
2021/11/30 01:10:51;;;;;;;1.07;0.83;;;;;;;;;;4990061;28;20656;-73
2021/11/30 01:13:20;;;;;;;1.80;1.23;;;;;;;;;;4989183;28;20236;-74
2021/11/30 01:15:48;;;;;;;1.97;1.33;;;;;;;;;;4986777;28;20208;-74
2021/11/30 01:18:15;;;;;;;0.60;0.60;;;;;;;;;;4989684;28;20205;-75
2021/11/30 01:20:43;;;;;;;1.60;1.47;;;;;;;;;;4994355;28;20248;-72
2021/11/30 01:23:10;;;;;;;1.77;1.00;;;;;;;;;;4995339;28;20201;-74
2021/11/30 01:25:38;;;;;;;0.40;0.40;;;;;;;;;;4993566;28;20232;-76
2021/11/30 01:28:07;;;;;;;0.60;0.60;;;;;;;;;;4992806;28;20209;-75
2021/11/30 01:30:35;;;;;;;2.90;1.17;;;;;;;;;;4991225;28;20663;-75
2021/11/30 01:33:04;;;;;;;0.93;0.93;;;;;;;;;;4996203;28;20233;-75
2021/11/30 01:35:32;;;;;;;0.70;0.70;;;;;;;;;;4994312;28;20202;-74
2021/11/30 01:38:00;;;;;;;0.60;0.60;;;;;;;;;;4993504;28;20206;-75
2021/11/30 01:40:28;;;;;;;0.67;0.67;;;;;;;;;;4993570;28;20218;-73
2021/11/30 01:42:59;;;;;;;0.83;0.60;;;;;;;;;;5000226;28;20201;-75
2021/11/30 01:45:32;;;;;;;2.20;1.03;;;;;;;;;;4995017;28;20214;-74
2021/11/30 01:50:46;;;;;;;0.93;0.93;;;;;;;;;;4992891;28;20237;-75
2021/11/30 01:53:14;;;;;;;4.03;1.13;;;;;;;;;;5000999;28;20229;-74
2021/11/30 01:55:43;;;;;;;0.60;0.60;;;;;;;;;;4993731;28;20224;-73
2021/11/30 01:58:11;;;;;;;0.00;0.00;;;;;;;;;;4995841;28;20578;-74
2021/11/30 02:00:38;;;;;;;1.63;1.43;;;;;;;;;;4992504;28;20206;-75
2021/11/30 02:03:08;;;;;;;0.87;0.83;;;;;;;;;;5000446;28;20213;-75
2021/11/30 02:05:37;;;;;;;1.77;1.37;;;;;;;;;;5001455;28;20663;-73
2021/11/30 02:08:05;;;;;;;1.80;1.53;;;;;;;;;;4993930;28;20241;-75
2021/11/30 02:10:32;;;;;;;1.13;1.13;;;;;;;;;;4993314;28;20209;-76
2021/11/30 02:13:00;;;;;;;9.83;1.63;;;;;;;;;;4993816;28;20233;-74
2021/11/30 02:15:27;;;;;;;1.00;1.00;;;;;;;;;;4994172;28;20206;-74
2021/11/30 02:17:55;;;;;;;1.27;1.17;;;;;;;;;;4998938;28;20574;-75
2021/11/30 02:20:24;;;;;;;3.20;1.03;;;;;;;;;;4998091;28;20265;-74
2021/11/30 02:22:55;;;;;;;1.70;1.60;;;;;;;;;;4992976;28;20220;-74
2021/11/30 02:25:23;;;;;;;1.97;1.30;;;;;;;;;;4994457;28;20285;-75
2021/11/30 02:27:51;;;;;;;1.50;1.40;;;;;;;;;;4993044;28;20678;-75
2021/11/30 02:30:19;;;;;;;0.57;0.57;;;;;;;;;;4991532;28;20675;-74
2021/11/30 02:32:46;;;;;;;1.63;1.37;;;;;;;;;;4990433;28;20242;-75
2021/11/30 02:35:15;;;;;;;0.93;0.93;;;;;;;;;;4990971;28;20585;-74
2021/11/30 02:37:48;;;;;;;2.37;2.17;;;;;;;;;;4992997;28;20205;-73
2021/11/30 02:40:16;;;;;;;3.27;2.13;;;;;;;;;;4994108;28;20224;-74
2021/11/30 02:42:44;;;;;;;1.90;1.80;;;;;;;;;;4984691;28;20201;-73
2021/11/30 02:45:11;;;;;;;0.23;0.23;;;;;;;;;;4983149;28;20650;-75
2021/11/30 02:47:39;;;;;;;1.77;1.03;;;;;;;;;;4982188;28;20750;-76
2021/11/30 02:50:08;;;;;;;1.10;1.00;;;;;;;;;;4983344;28;20611;-75
2021/11/30 02:52:36;;;;;;;0.77;0.73;;;;;;;;;;4996238;28;20327;-76
2021/11/30 02:55:05;;;;;;;0.57;0.57;;;;;;;;;;4992867;28;20755;-75
2021/11/30 02:57:32;;;;;;;0.57;0.57;;;;;;;;;;4990294;28;20206;-76
2021/11/30 03:00:00;;;;;;;0.90;0.90;;;;;;;;;;4995409;28;20205;-74
2021/11/30 03:02:29;;;;;;;0.37;0.30;;;;;;;;;;4999118;28;20209;-75
2021/11/30 03:04:57;;;;;;;1.93;1.07;;;;;;;;;;4992859;28;20214;-75
2021/11/30 03:07:26;;;;;;;0.13;0.13;;;;;;;;;;4992431;28;20696;-76
2021/11/30 03:09:54;;;;;;;0.23;0.23;;;;;;;;;;5001009;28;20213;-76
2021/11/30 03:12:24;;;;;;;0.43;0.43;;;;;;;;;;4989906;28;20217;-76
2021/11/30 03:14:51;;;;;;;0.50;0.30;;;;;;;;;;4993344;28;20209;-76
2021/11/30 03:17:19;;;;;;;1.10;0.83;;;;;;;;;;4991479;28;20212;-75
2021/11/30 03:19:47;;;;;;;0.37;0.37;;;;;;;;;;4993143;28;20663;-77
2021/11/30 03:22:14;;;;;;;1.70;0.87;;;;;;;;;;4997675;28;20789;-77
2021/11/30 03:24:42;;;;;;;0.10;0.10;;;;;;;;;;4994318;28;20210;-76
2021/11/30 03:27:09;;;;;;;0.53;0.53;;;;;;;;;;4989651;28;20209;-77
2021/11/30 03:29:38;;;;;;;0.57;0.57;;;;;;;;;;4990312;28;20252;-76
2021/11/30 03:32:09;;;;;;;2.33;1.40;;;;;;;;;;4993409;28;20212;-76
2021/11/30 03:34:36;;;;;;;0.90;0.90;;;;;;;;;;4992284;28;20237;-75
2021/11/30 03:37:05;;;;;;;0.30;0.30;;;;;;;;;;4991536;28;20237;-75
2021/11/30 03:39:32;;;;;;;1.20;0.73;;;;;;;;;;4995745;28;20617;-75
2021/11/30 03:42:00;;;;;;;1.20;0.77;;;;;;;;;;4995419;28;20201;-76
2021/11/30 03:44:28;;;;;;;4.60;0.97;;;;;;;;;;4991058;28;20210;-75
2021/11/30 03:46:58;;;;;;;0.63;0.63;;;;;;;;;;4999798;28;20212;-76
2021/11/30 03:49:26;;;;;;;0.57;0.57;;;;;;;;;;4991114;28;20663;-77
2021/11/30 03:51:54;;;;;;;0.77;0.77;;;;;;;;;;4991454;28;20291;-76
2021/11/30 03:54:21;;;;;;;1.23;0.50;;;;;;;;;;4990686;28;20235;-76
2021/11/30 03:56:49;;;;;;;1.33;0.93;;;;;;;;;;4990661;28;20201;-75
2021/11/30 03:59:17;;;;;;;0.50;0.30;;;;;;;;;;4991735;28;20547;-75
2021/11/30 04:01:45;;;;;;;2.00;1.23;;;;;;;;;;4993130;28;20212;-76
2021/11/30 04:04:20;;;;;;;0.77;0.77;;;;;;;;;;5001560;28;20208;-76
2021/11/30 04:06:48;;;;;;;0.10;0.10;;;;;;;;;;4987994;28;20197;-76
2021/11/30 04:09:16;;;;;;;0.67;0.60;;;;;;;;;;4990784;28;20233;-76
2021/11/30 04:11:43;;;;;;;1.63;0.80;;;;;;;;;;4991735;28;20206;-77
2021/11/30 04:14:11;;;;;;;0.90;0.70;;;;;;;;;;5001221;28;20228;-77
2021/11/30 04:16:39;;;;;;;0.70;0.57;;;;;;;;;;4992585;28;20208;-78
2021/11/30 04:19:06;;;;;;;4.27;1.40;;;;;;;;;;4989301;28;20225;-76
2021/11/30 04:21:35;;;;;;;0.60;0.60;;;;;;;;;;4996280;28;20236;-77
2021/11/30 04:24:03;;;;;;;0.50;0.50;;;;;;;;;;4999624;28;20193;-74
2021/11/30 04:26:30;;;;;;;3.63;1.30;;;;;;;;;;4988963;28;20206;-75
2021/11/30 04:28:58;;;;;;;1.17;1.07;;;;;;;;;;4990267;28;20208;-76
2021/11/30 04:31:25;;;;;;;0.50;0.50;;;;;;;;;;4997927;28;20265;-75
2021/11/30 04:33:53;;;;;;;1.00;1.00;;;;;;;;;;4987458;28;20228;-77
2021/11/30 04:36:20;;;;;;;0.57;0.57;;;;;;;;;;4984642;28;21247;-76
2021/11/30 04:38:49;;;;;;;0.40;0.40;;;;;;;;;;4978574;28;20671;-78
2021/11/30 04:41:16;;;;;;;1.33;0.97;;;;;;;;;;4981650;28;20209;-76
2021/11/30 04:43:44;;;;;;;0.87;0.33;;;;;;;;;;4980745;28;20197;-78
2021/11/30 04:46:15;;;;;;;1.03;0.77;;;;;;;;;;4988110;28;20201;-75
2021/11/30 04:48:52;;;;;;;2.17;0.67;;;;;;;;;;4984871;28;20232;-73
2021/11/30 04:51:19;;;;;;;0.93;0.67;;;;;;;;;;4978962;28;20217;-77
2021/11/30 04:53:47;;;;;;;4.23;1.00;;;;;;;;;;4980064;28;20236;-74
2021/11/30 04:56:16;;;;;;;1.50;1.40;;;;;;;;;;4984050;28;20217;-76
2021/11/30 04:58:43;;;;;;;0.73;0.67;;;;;;;;;;4982771;28;20222;-77
2021/11/30 05:01:11;;;;;;;5.73;2.07;;;;;;;;;;4982376;28;20213;-78
2021/11/30 05:03:38;;;;;;;1.00;0.57;;;;;;;;;;4985673;28;20242;-76
2021/11/30 05:06:07;;;;;;;0.60;0.60;;;;;;;;;;4983388;28;20213;-75
2021/11/30 05:08:35;;;;;;;1.47;1.37;;;;;;;;;;4979565;28;20209;-77
2021/11/30 05:11:02;;;;;;;3.77;1.60;;;;;;;;;;4984147;28;20198;-76
2021/11/30 05:13:31;;;;;;;0.27;0.27;;;;;;;;;;4985450;28;20229;-76
2021/11/30 05:15:59;;;;;;;0.87;0.87;;;;;;;;;;4991334;28;20201;-77
2021/11/30 05:18:26;;;;;;;0.83;0.83;;;;;;;;;;4988151;28;20205;-74
2021/11/30 05:20:54;;;;;;;3.53;1.13;;;;;;;;;;4982468;28;20229;-76
2021/11/30 05:23:27;;;;;;;19.83;1.67;;;;;;;;;;4982908;28;20215;-75
2021/11/30 05:25:55;;;;;;;1.57;1.47;;;;;;;;;;4982282;28;20214;-77
2021/11/30 05:28:23;;;;;;;2.80;1.37;;;;;;;;;;4985390;28;20201;-75
2021/11/30 05:30:52;;;;;;;0.77;0.60;;;;;;;;;;4981608;28;20207;-78
2021/11/30 05:33:20;;;;;;;1.47;1.10;;;;;;;;;;4986844;28;20225;-77
2021/11/30 05:35:47;;;;;;;0.87;0.87;;;;;;;;;;4989430;28;20670;-76
2021/11/30 05:38:15;;;;;;;1.17;1.07;;;;;;;;;;4982719;28;20331;-74
2021/11/30 05:40:42;;;;;;;1.50;1.33;;;;;;;;;;4985396;28;20210;-76
2021/11/30 05:43:11;;;;;;;0.30;0.30;;;;;;;;;;4985019;28;20218;-76
2021/11/30 05:45:38;;;;;;;1.23;1.13;;;;;;;;;;4987438;28;20206;-75
2021/11/30 05:48:07;;;;;;;0.67;0.67;;;;;;;;;;4989959;28;20539;-77
2021/11/30 05:50:35;;;;;;;0.80;0.53;;;;;;;;;;4986388;28;20216;-78
2021/11/30 05:53:02;;;;;;;2.43;2.03;;;;;;;;;;4981555;28;20225;-77
2021/11/30 05:55:30;;;;;;;0.27;0.27;;;;;;;;;;4980046;28;20578;-77
2021/11/30 05:57:58;;;;;;;3.60;1.47;;;;;;;;;;4983919;28;20206;-75
2021/11/30 06:00:27;;;;;;;1.33;1.27;;;;;;;;;;4983072;28;20210;-77
2021/11/30 06:03:02;;;;;;;1.00;0.90;;;;;;;;;;4983014;28;20212;-74
2021/11/30 06:05:32;;;;;;;0.70;0.70;;;;;;;;;;4984989;28;20239;-78
2021/11/30 06:08:00;;;;;;;0.83;0.60;;;;;;;;;;4981475;28;20868;-77
2021/11/30 06:10:28;;;;;;;0.93;0.90;;;;;;;;;;4979957;28;20206;-77
2021/11/30 06:12:55;;;;;;;1.13;0.53;;;;;;;;;;4981149;28;20301;-79
2021/11/30 06:15:23;;;;;;;1.17;0.87;;;;;;;;;;4990623;28;20225;-78
2021/11/30 06:17:51;;;;;;;0.93;0.93;;;;;;;;;;4995071;28;20229;-77
2021/11/30 06:20:20;;;;;;;0.50;0.50;;;;;;;;;;4984436;28;20776;-77
2021/11/30 06:22:49;;;;;;;3.10;1.07;;;;;;;;;;4982443;28;20202;-77
2021/11/30 06:25:16;;;;;;;1.17;0.47;;;;;;;;;;4980488;28;20216;-77
2021/11/30 06:27:45;;;;;;;1.00;0.97;;;;;;;;;;4981567;28;20201;-78
2021/11/30 06:30:13;;;;;;;0.40;0.40;;;;;;;;;;4981829;28;20212;-78
2021/11/30 06:32:41;;;;;;;0.80;0.80;;;;;;;;;;4988130;28;20204;-76
2021/11/30 06:35:09;;;;;;;1.13;1.10;;;;;;;;;;4986871;28;20234;-77
2021/11/30 06:37:36;;;;;;;3.00;1.30;;;;;;;;;;4985116;28;20209;-76
2021/11/30 06:40:06;;;;;;;1.67;1.07;;;;;;;;;;4980885;28;20209;-75
2021/11/30 06:42:33;;;;;;;5.10;0.57;;;;;;;;;;4985903;28;20210;-76
2021/11/30 06:45:00;;;;;;;2.13;1.30;;;;;;;;;;4982875;28;20206;-78
2021/11/30 06:47:29;;;;;;;0.27;0.23;;;;;;;;;;4992443;28;20206;-78
2021/11/30 06:49:57;;;;;;;4.33;1.10;;;;;;;;;;4990799;28;20535;-77
2021/11/30 06:52:24;;;;;;;6.40;1.27;;;;;;;;;;4985325;28;20194;-78
2021/11/30 06:54:54;;;;;;;0.00;0.00;;;;;;;;;;4981260;28;20226;-77
2021/11/30 06:57:23;;;;;;;0.57;0.57;;;;;;;;;;4981875;28;20206;-75
2021/11/30 06:59:51;;;;;;;0.70;0.70;;;;;;;;;;4982959;28;20209;-73
2021/11/30 07:02:20;;;;;;;0.37;0.37;;;;;;;;;;4983963;28;20198;-76
2021/11/30 07:04:51;;;;;;;3.13;1.03;;;;;;;;;;4983359;28;20885;-76
2021/11/30 07:07:23;;;;;;;1.30;0.83;;;;;;;;;;4980862;28;20710;-79
2021/11/30 07:10:06;;;;;;;0.67;0.67;;;;;;;;;;4986126;28;20365;-78
2021/11/30 07:13:02;;;;;;;1.17;0.63;;;;;;;;;;4995577;28;20574;-76
2021/11/30 07:15:30;;;;;;;0.10;0.10;;;;;;;;;;4995519;28;20221;-76
2021/11/30 07:17:58;;;;;;;2.30;0.90;;;;;;;;;;4990312;28;20205;-78
2021/11/30 07:20:26;;;;;;;0.87;0.87;;;;;;;;;;4994737;28;20226;-77
2021/11/30 07:22:56;;;;;;;0.50;0.50;;;;;;;;;;4983891;28;20205;-75
2021/11/30 07:25:24;;;;;;;0.77;0.77;;;;;;;;;;4980941;28;20195;-78
2021/11/30 07:27:53;;;;;;;0.83;0.83;;;;;;;;;;4983329;28;20209;-76
2021/11/30 07:30:20;;;;;;;1.90;0.90;;;;;;;;;;4995136;28;20974;-79
2021/11/30 07:32:48;;;;;;;0.20;0.20;;;;;;;;;;4992778;28;20205;-78
2021/11/30 07:35:15;;;;;;;0.00;0.00;;;;;;;;;;4994122;28;20229;-75
2021/11/30 07:37:42;;;;;;;1.60;1.03;;;;;;;;;;4991552;28;20225;-79
2021/11/30 07:40:11;;;;;;;2.83;1.37;;;;;;;;;;5001705;28;20658;-76
2021/11/30 07:42:38;;;;;;;0.43;0.40;;;;;;;;;;4990237;28;20203;-78
2021/11/30 07:45:08;;;;;;;7.57;0.97;;;;;;;;;;4991644;28;20206;-78
2021/11/30 07:47:35;;;;;;;0.37;0.37;;;;;;;;;;4992014;28;20702;-79
2021/11/30 07:50:03;;;;;;;0.10;0.10;;;;;;;;;;4992996;28;20197;-78
2021/11/30 07:52:32;;;;;;;1.80;1.07;;;;;;;;;;4990376;28;20198;-78
2021/11/30 07:55:04;;;;;;;0.10;0.10;;;;;;;;;;4992490;28;20225;-78
2021/11/30 07:57:32;;;;;;;0.77;0.73;;;;;;;;;;4988006;28;20217;-73
2021/11/30 07:59:59;;;;;;;0.13;0.13;;;;;;;;;;4983455;28;20263;-75
2021/11/30 08:02:28;;;;;;;0.77;0.60;;;;;;;;;;4981223;28;20579;-77
2021/11/30 08:04:55;;;;;;;1.40;0.93;;;;;;;;;;4981434;28;20221;-76
2021/11/30 08:07:23;;;;;;;1.83;1.63;;;;;;;;;;4977567;28;20295;-73
2021/11/30 08:09:50;;;;;;;0.10;0.00;;;;;;;;;;4980294;28;20213;-80
2021/11/30 08:12:17;;;;;;;0.30;0.30;;;;;;;;;;4980348;28;22247;-76
2021/11/30 08:14:45;;;;;;;0.60;0.60;;;;;;;;;;4977696;28;20236;-78
2021/11/30 08:17:15;;;;;;;3.87;2.00;;;;;;;;;;4976002;28;20206;-78
2021/11/30 08:19:46;;;;;;;0.60;0.60;;;;;;;;;;4979693;28;20226;-78
2021/11/30 08:22:14;;;;;;;0.43;0.37;;;;;;;;;;4973876;28;21059;-74
2021/11/30 08:24:42;;;;;;;2.40;0.80;;;;;;;;;;4979833;28;20742;-73
2021/11/30 08:27:09;;;;;;;0.67;0.67;;;;;;;;;;4978061;28;20214;-76
2021/11/30 08:29:39;;;;;;;0.27;0.27;;;;;;;;;;4975701;28;20210;-76
2021/11/30 08:32:08;;;;;;;0.47;0.47;;;;;;;;;;4978125;28;20206;-77
2021/11/30 08:34:35;;;;;;;0.10;0.07;;;;;;;;;;4980313;28;21166;-77
2021/11/30 08:37:04;;;;;;;0.10;0.10;;;;;;;;;;4981172;28;21132;-77
2021/11/30 08:39:33;;;;;;;0.10;0.10;;;;;;;;;;4978119;28;20209;-74
2021/11/30 08:42:00;;;;;;;0.17;0.17;;;;;;;;;;4976504;28;20217;-75
2021/11/30 08:44:28;;;;;;;0.40;0.40;;;;;;;;;;4979918;28;20201;-73
2021/11/30 08:46:55;;;;;;;1.20;0.47;;;;;;;;;;4979501;28;20235;-76
2021/11/30 08:49:23;;;;;;;1.70;1.60;;;;;;;;;;4978453;28;20576;-74
2021/11/30 08:51:51;;;;;;;3.43;0.77;;;;;;;;;;4975602;28;20213;-82
2021/11/30 08:54:20;;;;;;;0.30;0.30;;;;;;;;;;4979461;28;20256;-77
2021/11/30 08:56:48;;;;;;;0.30;0.30;;;;;;;;;;4976343;28;20205;-79
2021/11/30 08:59:16;;;;;;;3.20;0.37;;;;;;;;;;4976758;28;20223;-79
2021/11/30 09:01:43;;;;;;;0.50;0.40;;;;;;;;;;4980369;28;20217;-78
2021/11/30 09:04:11;;;;;;;0.50;0.50;;;;;;;;;;4976222;28;20582;-79
2021/11/30 09:06:38;;;;;;;1.17;0.60;;;;;;;;;;4976510;28;20670;-81
2021/11/30 09:09:07;;;;;;;1.53;0.80;;;;;;;;;;4978602;28;20199;-78
2021/11/30 09:11:36;;;;;;;0.20;0.00;;;;;;;;;;4979156;28;20210;-78
2021/11/30 09:14:05;;;;;;;0.30;0.30;;;;;;;;;;4978935;28;20548;-78
2021/11/30 09:16:33;;;;;;;0.87;0.43;;;;;;;;;;4980190;28;20244;-78
2021/11/30 09:19:01;;;;;;;1.80;1.53;;;;;;;;;;4978010;28;20195;-79
2021/11/30 09:21:29;;;;;;;2.03;0.50;;;;;;;;;;4977426;28;20260;-80
2021/11/30 09:23:57;;;;;;;1.13;1.03;;;;;;;;;;4981975;28;20679;-78
2021/11/30 09:26:25;;;;;;;0.30;0.20;;;;;;;;;;4976143;28;20209;-77
2021/11/30 09:28:54;;;;;;;0.50;0.50;;;;;;;;;;4978244;28;20202;-78
2021/11/30 09:31:21;;;;;;;0.00;0.00;;;;;;;;;;4973904;28;20210;-77
2021/11/30 09:33:49;;;;;;;8.53;1.20;;;;;;;;;;4976422;28;20217;-81
2021/11/30 09:36:16;;;;;;;3.20;0.60;;;;;;;;;;4976250;28;20718;-78
2021/11/30 09:38:45;;;;;;;2.73;1.17;;;;;;;;;;4980439;28;20599;-79
2021/11/30 09:41:12;;;;;;;0.10;0.10;;;;;;;;;;4977266;28;20191;-78
2021/11/30 09:43:40;;;;;;;0.83;0.40;;;;;;;;;;4981389;28;20675;-80
2021/11/30 09:46:10;;;;;;;0.40;0.40;;;;;;;;;;4984523;28;20205;-74
2021/11/30 09:48:38;;;;;;;0.40;0.40;;;;;;;;;;4988230;28;20911;-78
2021/11/30 09:51:06;;;;;;;0.90;0.87;;;;;;;;;;4984268;28;20232;-78
2021/11/30 09:53:34;;;;;;;0.37;0.37;;;;;;;;;;4981715;28;20218;-78
2021/11/30 09:56:02;;;;;;;0.30;0.17;;;;;;;;;;4981380;28;20257;-77
2021/11/30 09:58:29;;;;;;;1.00;0.73;;;;;;;;;;4982163;28;20209;-78
2021/11/30 10:00:58;;;;;;;0.50;0.50;;;;;;;;;;4982659;28;20225;-77
2021/11/30 10:03:28;;;;;;;6.37;1.73;;;;;;;;;;4981913;28;20293;-77
2021/11/30 10:05:56;;;;;;;0.60;0.60;;;;;;;;;;4988955;28;20206;-77
2021/11/30 10:08:28;;;;;;;5.17;1.60;;;;;;;;;;4990686;28;20206;-77
2021/11/30 10:10:56;;;;;;;0.30;0.27;;;;;;;;;;4984134;28;20225;-78
2021/11/30 10:13:23;;;;;;;4.07;0.90;;;;;;;;;;4988444;28;20205;-79
2021/11/30 10:15:53;;;;;;;0.40;0.40;;;;;;;;;;4984418;28;20244;-82
2021/11/30 10:18:22;;;;;;;0.63;0.63;;;;;;;;;;4979161;28;20202;-74
2021/11/30 10:20:53;;;;;;;0.83;0.50;;;;;;;;;;4987458;28;20237;-78
2021/11/30 10:23:22;;;;;;;0.97;0.93;;;;;;;;;;4985555;28;20206;-81
2021/11/30 10:25:51;;;;;;;5.60;1.17;;;;;;;;;;4976763;28;20209;-77
2021/11/30 10:28:19;;;;;;;0.67;0.40;;;;;;;;;;4975379;28;20591;-80
2021/11/30 10:30:49;;;;;;;0.77;0.77;;;;;;;;;;4983087;28;20651;-79
2021/11/30 10:33:20;;;;;;;0.20;0.20;;;;;;;;;;4980522;28;20218;-76
2021/11/30 10:35:52;;;;;;;1.00;0.60;;;;;;;;;;4984458;28;20229;-73
2021/11/30 10:38:22;;;;;;;2.10;0.60;;;;;;;;;;4983696;28;20221;-80
2021/11/30 10:40:50;;;;;;;0.47;0.47;;;;;;;;;;4982871;28;20201;-79
2021/11/30 10:43:18;;;;;;;0.63;0.63;;;;;;;;;;4981665;28;20208;-81
2021/11/30 10:45:47;;;;;;;1.27;0.93;;;;;;;;;;4982451;28;20212;-76
2021/11/30 10:48:16;;;;;;;0.17;0.17;;;;;;;;;;4981313;28;20220;-76
2021/11/30 10:50:44;;;;;;;1.13;0.67;;;;;;;;;;4979303;28;20276;-76
2021/11/30 10:53:19;;;;;;;9.47;2.20;;;;;;;;;;4977077;28;20209;-71
2021/11/30 10:55:49;;;;;;;1.03;0.50;;;;;;;;;;4983657;28;20308;-70
2021/11/30 10:58:18;;;;;;;0.40;0.40;;;;;;;;;;4981898;28;20224;-79
2021/11/30 11:00:45;;;;;;;0.53;0.03;;;;;;;;;;4976524;28;20198;-76
2021/11/30 11:03:17;;;;;;;1.17;0.50;;;;;;;;;;4979580;28;20228;-76
2021/11/30 11:05:45;;;;;;;0.40;0.40;;;;;;;;;;4981140;28;20255;-78
2021/11/30 11:08:14;;;;;;;2.67;0.80;;;;;;;;;;4976365;28;20213;-76
2021/11/30 11:10:42;;;;;;;0.27;0.27;;;;;;;;;;4979009;28;20217;-78
2021/11/30 11:13:22;;;;;;;0.70;0.70;;;;;;;;;;4978980;28;20261;-79
2021/11/30 11:15:50;;;;;;;0.70;0.43;;;;;;;;;;4977211;28;20251;-80
2021/11/30 11:18:22;;;;;;;0.10;0.10;;;;;;;;;;4978516;28;20205;-79
2021/11/30 11:20:51;;;;;;;0.50;0.50;;;;;;;;;;4980200;28;20248;-80
2021/11/30 11:23:22;;;;;;;1.87;0.80;;;;;;;;;;4979880;28;20205;-79
2021/11/30 11:25:52;;;;;;;0.43;0.43;;;;;;;;;;4982659;28;20228;-78
2021/11/30 11:28:21;;;;;;;0.30;0.30;;;;;;;;;;4987800;28;20665;-76
2021/11/30 11:30:48;;;;;;;1.17;0.53;;;;;;;;;;4978596;28;20201;-74
2021/11/30 11:33:17;;;;;;;1.13;0.90;;;;;;;;;;4979180;28;20691;-75
2021/11/30 11:35:45;;;;;;;0.43;0.43;;;;;;;;;;4978808;28;20315;-73
2021/11/30 11:38:12;;;;;;;28.43;1.70;;;;;;;;;;4977269;28;20198;-79
2021/11/30 11:40:40;;;;;;;0.23;0.23;;;;;;;;;;4978383;28;20683;-73
2021/11/30 11:43:07;;;;;;;0.30;0.10;;;;;;;;;;4979461;28;20688;-78
2021/11/30 11:45:36;;;;;;;0.03;0.03;;;;;;;;;;4987767;28;20201;-75
2021/11/30 11:48:05;;;;;;;0.27;0.27;;;;;;;;;;4987657;28;20637;-77
2021/11/30 11:50:50;;;;;;;1.50;0.23;;;;;;;;;;4987302;28;20277;-83
2021/11/30 11:53:22;;;;;;;0.37;0.37;;;;;;;;;;4990108;28;20286;-76
2021/11/30 11:56:05;;;;;;;0.10;0.10;;;;;;;;;;4988803;28;20236;-78
2021/11/30 11:58:33;;;;;;;0.30;0.30;;;;;;;;;;4985481;28;20212;-74
2021/11/30 12:01:02;;;;;;;2.10;0.77;;;;;;;;;;4978247;28;20576;-75
2021/11/30 12:03:45;;;;;;;0.17;0.17;;;;;;;;;;4979273;28;20220;-77
2021/11/30 12:06:17;;;;;;;1.47;0.63;;;;;;;;;;4979710;28;20220;-74
2021/11/30 12:09:00;;;;;;;0.20;0.10;;;;;;;;;;4977381;28;20257;-73
2021/11/30 12:11:36;;;;;;;0.37;0.30;;;;;;;;;;4977162;28;20214;-72
2021/11/30 12:14:09;;;;;;;3.03;1.20;;;;;;;;;;4979015;28;20205;-75
2021/11/30 12:16:51;;;;;;;1.40;0.80;;;;;;;;;;4977445;28;20233;-77
2021/11/30 12:19:27;;;;;;;1.73;0.97;;;;;;;;;;4974339;28;20202;-74
2021/11/30 12:21:54;;;;;;;0.10;0.10;;;;;;;;;;4976988;28;20408;-78
2021/11/30 12:24:33;;;;;;;0.40;0.13;;;;;;;;;;4977753;28;20217;-73
2021/11/30 12:27:01;;;;;;;4.13;0.87;;;;;;;;;;4977040;28;20206;-74
2021/11/30 12:29:36;;;;;;;0.27;0.27;;;;;;;;;;4978895;28;20220;-75
2021/11/30 12:32:14;;;;;;;0.40;0.40;;;;;;;;;;4977878;28;20288;-72
2021/11/30 12:34:48;;;;;;;4.80;0.30;;;;;;;;;;4974444;28;20199;-76
2021/11/30 12:37:17;;;;;;;0.50;0.50;;;;;;;;;;4977292;28;20261;-75
2021/11/30 12:40:06;;;;;;;0.00;0.00;;;;;;;;;;4975115;28;20299;-77
2021/11/30 12:42:52;;;;;;;0.27;0.20;;;;;;;;;;4974015;28;20206;-77
2021/11/30 12:45:22;;;;;;;3.40;1.20;;;;;;;;;;4982955;28;20264;-78
2021/11/30 12:47:50;;;;;;;3.00;0.30;;;;;;;;;;4982589;28;20206;-79
2021/11/30 12:50:24;;;;;;;1.60;0.33;;;;;;;;;;4983456;28;20675;-80
2021/11/30 12:52:54;;;;;;;0.40;0.40;;;;;;;;;;4985410;28;20583;-78
2021/11/30 12:55:22;;;;;;;0.63;0.63;;;;;;;;;;4981823;28;20568;-75
2021/11/30 12:57:49;;;;;;;1.13;0.80;;;;;;;;;;4987044;28;20588;-77
2021/11/30 13:00:24;;;;;;;0.67;0.67;;;;;;;;;;4988241;28;20212;-78
2021/11/30 13:02:52;;;;;;;0.47;0.43;;;;;;;;;;4986495;28;20209;-77
2021/11/30 13:05:21;;;;;;;1.60;0.40;;;;;;;;;;4987261;28;20201;-77
2021/11/30 13:08:08;;;;;;;0.60;0.60;;;;;;;;;;4986808;28;20725;-79
2021/11/30 13:10:38;;;;;;;0.57;0.47;;;;;;;;;;4987252;28;20305;-78
2021/11/30 13:13:07;;;;;;;0.80;0.50;;;;;;;;;;4987508;28;20205;-78
2021/11/30 13:15:35;;;;;;;2.10;0.87;;;;;;;;;;4985271;28;20208;-79
2021/11/30 13:18:04;;;;;;;0.70;0.70;;;;;;;;;;4982874;28;20682;-79
2021/11/30 13:20:34;;;;;;;0.00;0.00;;;;;;;;;;4984130;28;20232;-78
2021/11/30 13:23:02;;;;;;;2.10;0.63;;;;;;;;;;4980607;28;20216;-72
2021/11/30 13:25:32;;;;;;;0.20;0.20;;;;;;;;;;4980760;28;20251;-81
2021/11/30 13:28:01;;;;;;;6.40;0.63;;;;;;;;;;4986754;28;20205;-77
2021/11/30 13:30:29;;;;;;;6.97;0.83;;;;;;;;;;4987847;28;20637;-75
2021/11/30 13:33:02;;;;;;;4.77;0.50;;;;;;;;;;4985075;28;20197;-74
2021/11/30 13:35:30;;;;;;;1.30;0.40;;;;;;;;;;4990018;28;20210;-73
2021/11/30 13:38:03;;;;;;;0.57;0.57;;;;;;;;;;4990885;28;20316;-73
2021/11/30 13:40:39;;;;;;;0.67;0.67;;;;;;;;;;4982396;28;20847;-76
2021/11/30 13:43:07;;;;;;;0.77;0.50;;;;;;;;;;4989082;28;20285;-76
2021/11/30 13:45:36;;;;;;;0.10;0.10;;;;;;;;;;4982580;28;20202;-79
2021/11/30 13:48:04;;;;;;;0.80;0.77;;;;;;;;;;4981043;28;20595;-74
2021/11/30 13:50:37;;;;;;;0.00;0.00;;;;;;;;;;4977059;28;20209;-72
2021/11/30 13:53:10;;;;;;;0.10;0.10;;;;;;;;;;4980714;28;20269;-76
2021/11/30 13:55:40;;;;;;;0.20;0.20;;;;;;;;;;4987550;28;20726;-75
2021/11/30 13:58:14;;;;;;;0.00;0.00;;;;;;;;;;4987405;28;20214;-76
2021/11/30 14:00:48;;;;;;;0.00;0.00;;;;;;;;;;4979343;28;20589;-76
2021/11/30 14:03:16;;;;;;;1.60;1.03;;;;;;;;;;4980459;28;20232;-75
2021/11/30 14:05:43;;;;;;;0.53;0.53;;;;;;;;;;4976718;28;20201;-82
2021/11/30 14:08:11;;;;;;;0.10;0.10;;;;;;;;;;4977563;28;20205;-76
2021/11/30 14:10:42;;;;;;;0.57;0.27;;;;;;;;;;4974149;28;20292;-76
2021/11/30 14:13:10;;;;;;;0.00;0.00;;;;;;;;;;4980103;28;20296;-74
2021/11/30 14:15:37;;;;;;;0.47;0.47;;;;;;;;;;4981474;28;20244;-75
2021/11/30 14:18:06;;;;;;;0.30;0.30;;;;;;;;;;4979795;28;20296;-76
2021/11/30 14:20:33;;;;;;;0.20;0.20;;;;;;;;;;4979500;28;20245;-77
2021/11/30 14:23:00;;;;;;;1.80;0.20;;;;;;;;;;4979787;28;20197;-80
2021/11/30 14:25:29;;;;;;;0.97;0.33;;;;;;;;;;4980768;28;20208;-75
2021/11/30 14:27:59;;;;;;;0.90;0.50;;;;;;;;;;4980616;28;20214;-77
2021/11/30 14:30:28;;;;;;;4.40;0.63;;;;;;;;;;4977970;28;21308;-77
2021/11/30 14:33:03;;;;;;;0.23;0.23;;;;;;;;;;4981543;28;20210;-71
2021/11/30 14:35:38;;;;;;;0.33;0.33;;;;;;;;;;4977663;28;20209;-72
2021/11/30 14:38:06;;;;;;;0.00;0.00;;;;;;;;;;4978176;28;20233;-75
2021/11/30 14:40:38;;;;;;;0.73;0.70;;;;;;;;;;4981632;28;20209;-75
2021/11/30 14:43:13;;;;;;;0.67;0.40;;;;;;;;;;4979244;28;20209;-74
2021/11/30 14:45:44;;;;;;;0.90;0.73;;;;;;;;;;4980887;28;20283;-75
2021/11/30 14:48:17;;;;;;;1.33;1.23;;;;;;;;;;4979208;28;20759;-78
2021/11/30 14:50:46;;;;;;;0.53;0.43;;;;;;;;;;4978270;28;20201;-75
2021/11/30 14:53:16;;;;;;;0.07;0.07;;;;;;;;;;4980333;28;20208;-74
2021/11/30 14:55:47;;;;;;;0.33;0.33;;;;;;;;;;4980214;28;20213;-77
2021/11/30 14:58:20;;;;;;;0.00;0.00;;;;;;;;;;4981788;28;20229;-80